Time;durP1;ratioP1;P1;durP2;ratioP2;P2;SDS_P1;SDS_P2;PMS_P1;PMS_P2;Temp;Humidity;BMP_temperature;BMP_pressure;BME280_temperature;BME280_humidity;BME280_pressure;Samples;Min_cycle;Max_cycle;Signal;HPM_P1;HPM_P2
2022/11/25 00:01:06;;;;;;;2.55;1.73;;;7.40;41.70;;;;;;4994116;28;20534;-70
2022/11/25 00:03:32;;;;;;;1.75;1.10;;;7.20;42.20;;;;;;4986880;28;20186;-69
2022/11/25 00:06:25;;;;;;;3.80;1.60;;;7.20;42.20;;;;;;4991640;28;20236;-69
2022/11/25 00:09:13;;;;;;;2.42;1.83;;;7.30;42.60;;;;;;4981008;28;20174;-70
2022/11/25 00:11:41;;;;;;;2.65;1.52;;;7.20;41.60;;;;;;4990179;28;20691;-70
2022/11/25 00:14:11;;;;;;;4.50;1.65;;;7.50;42.20;;;;;;4992265;28;20196;-70
2022/11/25 00:16:37;;;;;;;2.80;1.92;;;7.20;42.20;;;;;;4986688;28;20174;-70
2022/11/25 00:19:02;;;;;;;4.70;2.40;;;7.30;41.60;;;;;;4993398;28;20177;-70
2022/11/25 00:21:31;;;;;;;3.00;2.17;;;7.30;41.60;;;;;;4994390;28;20216;-69
2022/11/25 00:24:02;;;;;;;1.90;1.20;;;7.40;41.40;;;;;;4985779;28;20193;-69
2022/11/25 00:26:33;;;;;;;2.55;1.73;;;7.50;41.10;;;;;;4993326;28;20276;-69
2022/11/25 00:29:01;;;;;;;1.90;1.25;;;7.30;41.50;;;;;;4991845;28;20190;-71
2022/11/25 00:31:33;;;;;;;6.18;2.70;;;7.20;42.20;;;;;;4995615;28;20197;-70
2022/11/25 00:33:59;;;;;;;1.90;1.30;;;7.20;41.90;;;;;;4988297;28;20190;-70
2022/11/25 00:36:26;;;;;;;2.63;1.80;;;7.30;41.50;;;;;;4981786;28;20654;-69
2022/11/25 00:38:53;;;;;;;2.10;1.40;;;7.10;41.90;;;;;;4987907;28;20240;-69
2022/11/25 00:46:48;;;;;;;3.47;1.75;;;7.10;42.10;;;;;;4987682;28;20515;-70
2022/11/25 00:49:13;;;;;;;2.33;1.70;;;7.10;42.70;;;;;;4992938;28;20198;-70
2022/11/25 00:51:39;;;;;;;1.70;1.00;;;7.00;42.50;;;;;;4988918;28;20191;-69
2022/11/25 00:54:04;;;;;;;2.10;1.50;;;7.00;43.10;;;;;;4983624;28;20186;-70
2022/11/25 00:56:30;;;;;;;4.80;2.17;;;7.30;42.10;;;;;;5003400;28;20270;-69
2022/11/25 00:58:56;;;;;;;4.47;1.40;;;7.30;42.20;;;;;;4992232;28;20425;-69
2022/11/25 01:01:22;;;;;;;2.43;1.53;;;7.20;42.40;;;;;;4992355;28;20492;-70
2022/11/25 01:03:49;;;;;;;2.35;1.58;;;7.20;42.80;;;;;;4983501;28;20579;-69
2022/11/25 01:06:15;;;;;;;1.80;1.13;;;7.00;43.40;;;;;;4993535;28;20198;-69
2022/11/25 01:08:40;;;;;;;2.00;1.43;;;7.00;43.10;;;;;;4992164;28;20189;-69
2022/11/25 01:11:17;;;;;;;3.90;2.60;;;7.10;43.60;;;;;;4991862;28;20209;-70
2022/11/25 01:13:43;;;;;;;1.80;1.20;;;7.30;42.30;;;;;;4990675;28;20233;-69
2022/11/25 01:16:15;;;;;;;2.70;1.58;;;7.30;42.40;;;;;;4986952;28;20555;-70
2022/11/25 01:18:41;;;;;;;1.90;1.33;;;7.20;42.90;;;;;;4986905;28;20220;-69
2022/11/25 01:21:12;;;;;;;2.70;1.92;;;7.10;42.60;;;;;;4992047;28;20206;-69
2022/11/25 01:23:39;;;;;;;1.80;1.15;;;7.20;41.90;;;;;;4987211;28;20182;-69
2022/11/25 01:26:09;;;;;;;2.25;1.42;;;7.20;42.50;;;;;;4989648;28;20209;-69
2022/11/25 01:28:35;;;;;;;1.80;1.20;;;7.40;42.80;;;;;;4989345;28;20183;-70
2022/11/25 01:31:07;;;;;;;1.70;1.10;;;7.10;42.80;;;;;;4980316;28;20229;-69
2022/11/25 01:33:34;;;;;;;1.80;1.10;;;7.10;43.10;;;;;;4992042;28;20740;-69
2022/11/25 01:36:05;;;;;;;2.10;1.48;;;7.20;42.90;;;;;;4984460;28;20561;-69
2022/11/25 01:38:31;;;;;;;2.00;1.35;;;7.30;43.10;;;;;;4982002;28;20519;-69
2022/11/25 01:40:57;;;;;;;2.20;1.52;;;7.40;42.70;;;;;;4986861;28;20692;-70
2022/11/25 01:43:23;;;;;;;1.80;1.10;;;7.40;43.10;;;;;;4995218;28;20560;-69
2022/11/25 01:45:49;;;;;;;1.70;1.10;;;7.40;43.50;;;;;;4992009;28;20273;-69
2022/11/25 01:48:24;;;;;;;1.90;1.27;;;7.60;43.80;;;;;;4992161;28;20249;-68
2022/11/25 01:50:49;;;;;;;2.50;1.55;;;7.60;43.50;;;;;;4984779;28;20207;-67
2022/11/25 01:53:17;;;;;;;2.97;1.80;;;7.60;44.70;;;;;;4991922;28;20181;-68
2022/11/25 01:55:50;;;;;;;16.70;2.55;;;7.70;44.90;;;;;;4985891;28;20688;-69
2022/11/25 01:58:20;;;;;;;1.70;1.08;;;7.90;45.40;;;;;;4981646;28;20530;-67
2022/11/25 02:00:50;;;;;;;1.70;1.10;;;7.90;45.00;;;;;;4986617;28;20208;-67
2022/11/25 02:03:26;;;;;;;3.30;1.73;;;7.90;44.30;;;;;;4990109;28;20178;-67
2022/11/25 02:06:15;;;;;;;2.20;1.52;;;7.10;45.80;;;;;;4982889;28;20184;-67
2022/11/25 02:08:43;;;;;;;2.00;1.45;;;6.80;47.80;;;;;;4979545;28;20590;-67
2022/11/25 02:11:09;;;;;;;2.53;1.85;;;6.40;49.30;;;;;;4991934;28;20220;-68
2022/11/25 02:13:36;;;;;;;1.70;1.00;;;6.30;48.70;;;;;;4987165;28;20194;-67
2022/11/25 02:16:02;;;;;;;1.80;1.40;;;6.20;47.90;;;;;;4990649;28;20556;-67
2022/11/25 02:18:28;;;;;;;2.20;1.53;;;6.40;47.00;;;;;;4987984;28;20189;-68
2022/11/25 02:20:53;;;;;;;7.50;2.90;;;6.60;46.00;;;;;;4994805;28;20217;-67
2022/11/25 02:23:32;;;;;;;14.13;2.13;;;6.80;45.30;;;;;;4995460;28;20178;-67
2022/11/25 02:25:58;;;;;;;2.00;1.30;;;7.10;44.50;;;;;;4996141;28;20180;-70
2022/11/25 02:28:29;;;;;;;2.03;1.30;;;7.20;44.50;;;;;;4995424;28;20559;-68
2022/11/25 02:30:56;;;;;;;2.13;1.45;;;7.30;44.10;;;;;;4995159;28;20648;-68
2022/11/25 02:33:22;;;;;;;1.75;1.15;;;6.70;45.40;;;;;;4994140;28;20198;-68
2022/11/25 02:36:11;;;;;;;2.20;1.52;;;6.40;46.40;;;;;;4995339;28;20208;-68
2022/11/25 02:38:39;;;;;;;2.63;1.73;;;6.30;46.40;;;;;;4991001;28;20182;-67
2022/11/25 02:41:10;;;;;;;1.80;1.10;;;5.60;49.90;;;;;;4991261;28;20766;-68
2022/11/25 02:43:37;;;;;;;1.88;1.40;;;5.60;50.40;;;;;;4994811;28;20186;-69
2022/11/25 02:46:05;;;;;;;3.88;1.92;;;5.50;51.40;;;;;;4994970;28;20177;-68
2022/11/25 02:48:34;;;;;;;2.60;1.60;;;5.80;50.40;;;;;;4995016;28;20201;-68
2022/11/25 02:51:00;;;;;;;1.80;1.20;;;6.30;48.00;;;;;;4983745;28;20210;-68
2022/11/25 02:53:26;;;;;;;2.10;1.60;;;6.50;46.60;;;;;;4992467;28;20206;-67
2022/11/25 02:55:52;;;;;;;3.93;2.23;;;6.80;46.10;;;;;;4981772;28;20190;-68
2022/11/25 02:58:18;;;;;;;1.70;1.00;;;7.00;45.40;;;;;;4992564;28;20437;-68
2022/11/25 03:00:44;;;;;;;1.90;1.50;;;7.20;43.70;;;;;;4986482;28;20205;-71
2022/11/25 03:03:10;;;;;;;2.55;1.60;;;7.10;44.20;;;;;;4994237;28;20518;-68
2022/11/25 03:05:36;;;;;;;5.95;1.77;;;7.00;44.40;;;;;;4996028;28;20195;-68
2022/11/25 03:08:02;;;;;;;2.23;1.47;;;7.00;45.10;;;;;;4994720;28;20192;-68
2022/11/25 03:10:28;;;;;;;1.70;1.10;;;7.20;45.00;;;;;;4996384;28;20232;-68
2022/11/25 03:12:53;;;;;;;2.23;1.30;;;7.20;44.80;;;;;;4994433;28;20650;-68
2022/11/25 03:15:19;;;;;;;1.90;1.33;;;7.20;44.80;;;;;;4993782;28;20200;-68
2022/11/25 03:17:45;;;;;;;2.60;1.60;;;7.20;44.30;;;;;;4994994;28;20178;-67
2022/11/25 03:20:12;;;;;;;1.80;1.20;;;7.20;45.00;;;;;;4998977;28;20464;-67
2022/11/25 03:22:38;;;;;;;4.25;1.75;;;7.30;44.50;;;;;;4989464;28;20206;-67
2022/11/25 03:25:04;;;;;;;2.60;1.50;;;7.20;44.40;;;;;;4990158;28;20202;-68
2022/11/25 03:27:30;;;;;;;5.63;2.65;;;7.00;45.10;;;;;;4993231;28;20177;-68
2022/11/25 03:29:55;;;;;;;2.10;1.40;;;7.10;45.80;;;;;;4994449;28;20633;-68
2022/11/25 03:32:21;;;;;;;1.80;1.20;;;7.10;45.30;;;;;;4988495;28;20273;-69
2022/11/25 03:34:47;;;;;;;1.80;1.10;;;7.10;45.10;;;;;;4994322;28;20178;-70
2022/11/25 03:37:12;;;;;;;2.40;1.73;;;7.20;44.50;;;;;;4987189;28;20562;-68
2022/11/25 03:39:38;;;;;;;1.80;1.20;;;7.30;44.50;;;;;;4993630;28;20221;-68
2022/11/25 03:42:03;;;;;;;2.77;2.17;;;7.30;44.50;;;;;;4996089;28;20181;-69
2022/11/25 03:44:29;;;;;;;1.80;1.20;;;7.30;44.40;;;;;;4985532;28;20654;-68
2022/11/25 03:46:54;;;;;;;1.80;1.30;;;7.40;44.50;;;;;;4993651;28;20632;-68
2022/11/25 03:49:20;;;;;;;3.97;1.80;;;7.30;44.50;;;;;;4993839;28;20200;-68
2022/11/25 03:51:46;;;;;;;5.07;3.20;;;7.30;44.30;;;;;;4993836;28;20549;-68
2022/11/25 03:54:12;;;;;;;3.65;1.63;;;7.40;44.30;;;;;;5001947;28;20977;-67
2022/11/25 03:56:38;;;;;;;1.70;1.00;;;7.60;43.40;;;;;;4994056;28;20182;-68
2022/11/25 03:59:03;;;;;;;2.87;2.10;;;7.50;44.00;;;;;;4996992;28;20202;-67
2022/11/25 04:01:29;;;;;;;7.43;2.53;;;7.50;44.10;;;;;;4996183;28;20545;-67
2022/11/25 04:03:54;;;;;;;2.37;1.50;;;7.60;44.50;;;;;;4981139;28;20177;-67
2022/11/25 04:06:22;;;;;;;1.83;1.23;;;7.60;43.60;;;;;;4994577;28;20328;-68
2022/11/25 04:08:51;;;;;;;2.15;1.35;;;7.50;44.30;;;;;;4993779;28;20209;-68
2022/11/25 04:11:16;;;;;;;2.28;1.30;;;7.50;44.70;;;;;;4993073;28;20186;-68
2022/11/25 04:13:42;;;;;;;13.50;2.50;;;7.50;44.80;;;;;;4978525;28;20641;-71
2022/11/25 04:16:22;;;;;;;2.73;2.30;;;7.60;44.90;;;;;;4989644;28;20268;-70
2022/11/25 04:18:48;;;;;;;1.90;1.30;;;7.70;44.70;;;;;;4993407;28;20184;-70
2022/11/25 04:21:13;;;;;;;2.23;1.40;;;7.60;44.60;;;;;;4993356;28;20299;-70
2022/11/25 04:23:39;;;;;;;1.70;1.10;;;7.70;44.40;;;;;;4995757;28;20173;-70
2022/11/25 04:26:04;;;;;;;3.73;2.33;;;7.60;44.60;;;;;;4989654;28;20182;-71
2022/11/25 04:28:30;;;;;;;2.30;1.50;;;8.10;44.80;;;;;;4984753;28;20229;-70
2022/11/25 04:30:55;;;;;;;1.80;1.20;;;7.70;44.50;;;;;;4992833;28;20240;-70
2022/11/25 04:33:21;;;;;;;1.90;1.57;;;7.90;45.20;;;;;;4992611;28;20201;-69
2022/11/25 04:35:47;;;;;;;2.27;1.20;;;7.60;45.20;;;;;;4985398;28;20272;-69
2022/11/25 04:38:12;;;;;;;1.80;1.17;;;7.60;44.90;;;;;;4992450;28;20264;-68
2022/11/25 04:40:38;;;;;;;4.70;2.17;;;7.80;45.10;;;;;;4992383;28;20209;-68
2022/11/25 04:43:03;;;;;;;1.93;1.40;;;8.00;43.60;;;;;;4992579;28;20703;-69
2022/11/25 04:45:29;;;;;;;1.70;1.10;;;8.20;42.90;;;;;;4991718;28;20179;-70
2022/11/25 04:47:55;;;;;;;2.10;1.47;;;8.60;42.70;;;;;;4990693;28;20181;-69
2022/11/25 04:50:22;;;;;;;2.53;1.80;;;8.00;43.60;;;;;;4992715;28;20225;-69
2022/11/25 04:52:47;;;;;;;1.75;1.10;;;7.90;43.20;;;;;;4986298;28;20249;-70
2022/11/25 04:55:13;;;;;;;2.07;1.30;;;7.80;43.80;;;;;;4990423;28;20599;-70
2022/11/25 04:57:39;;;;;;;2.67;1.90;;;7.90;43.20;;;;;;4994345;28;20272;-69
2022/11/25 05:00:05;;;;;;;2.00;1.30;;;7.80;43.60;;;;;;4987883;28;20224;-69
2022/11/25 05:02:31;;;;;;;2.97;2.05;;;8.00;43.20;;;;;;4992344;28;20186;-70
2022/11/25 05:04:58;;;;;;;2.47;1.67;;;7.90;43.10;;;;;;4977222;28;20185;-69
2022/11/25 05:07:26;;;;;;;1.80;1.13;;;7.70;43.60;;;;;;4993331;28;20673;-70
2022/11/25 05:09:52;;;;;;;3.42;1.63;;;7.50;44.50;;;;;;4991233;28;20238;-71
2022/11/25 05:12:23;;;;;;;4.73;3.03;;;7.10;45.00;;;;;;4992211;28;20229;-69
2022/11/25 05:14:49;;;;;;;2.63;1.75;;;6.70;46.70;;;;;;4992488;28;20178;-69
2022/11/25 05:17:17;;;;;;;2.10;1.33;;;6.60;46.60;;;;;;4993101;28;20565;-69
2022/11/25 05:19:44;;;;;;;1.80;1.20;;;6.60;46.90;;;;;;4986306;28;20273;-69
2022/11/25 05:22:15;;;;;;;2.50;1.80;;;6.70;46.70;;;;;;4991981;28;20248;-70
2022/11/25 05:24:41;;;;;;;1.77;1.25;;;6.90;46.00;;;;;;4987187;28;20179;-69
2022/11/25 05:27:06;;;;;;;2.90;2.03;;;7.30;45.00;;;;;;4974229;28;20175;-69
2022/11/25 05:29:32;;;;;;;2.23;1.53;;;7.20;44.00;;;;;;4993419;28;20704;-69
2022/11/25 05:31:58;;;;;;;2.73;1.77;;;7.00;44.00;;;;;;4992118;28;20186;-70
2022/11/25 05:34:24;;;;;;;4.63;1.70;;;7.00;43.90;;;;;;4984044;28;20429;-69
2022/11/25 05:36:50;;;;;;;1.77;1.10;;;7.10;43.60;;;;;;4992360;28;20182;-69
2022/11/25 05:39:16;;;;;;;3.85;2.65;;;7.30;43.50;;;;;;4991053;28;20804;-69
2022/11/25 05:41:42;;;;;;;2.00;1.30;;;7.20;43.30;;;;;;4992890;28;20836;-69
2022/11/25 05:44:08;;;;;;;2.63;1.90;;;7.30;43.30;;;;;;4982902;28;20191;-69
2022/11/25 05:46:33;;;;;;;2.00;1.33;;;7.20;44.00;;;;;;4984785;28;20184;-69
2022/11/25 05:48:59;;;;;;;2.20;1.67;;;7.40;43.90;;;;;;4993506;28;20216;-68
2022/11/25 05:51:25;;;;;;;3.23;1.67;;;7.30;43.90;;;;;;4996352;28;20185;-71
2022/11/25 05:53:51;;;;;;;2.10;1.42;;;7.40;43.50;;;;;;4995655;28;20182;-70
2022/11/25 05:56:16;;;;;;;4.07;2.17;;;7.20;43.60;;;;;;4996196;28;20181;-69
2022/11/25 05:58:42;;;;;;;2.30;1.57;;;7.00;44.00;;;;;;4996125;28;20178;-69
2022/11/25 06:01:11;;;;;;;2.05;1.42;;;6.70;45.10;;;;;;4993857;28;20209;-70
2022/11/25 06:03:37;;;;;;;1.80;1.20;;;6.80;45.70;;;;;;4994350;28;20552;-69
2022/11/25 06:06:03;;;;;;;1.80;1.13;;;7.00;44.70;;;;;;4995850;28;20189;-69
2022/11/25 06:08:29;;;;;;;3.90;2.17;;;7.00;44.60;;;;;;4995718;28;20432;-69
2022/11/25 06:10:54;;;;;;;1.80;1.40;;;7.00;44.40;;;;;;4987042;28;20209;-69
2022/11/25 06:13:20;;;;;;;1.70;1.10;;;6.90;44.10;;;;;;4993609;28;20447;-68
2022/11/25 06:15:46;;;;;;;3.30;2.40;;;6.80;44.50;;;;;;4995774;28;20186;-69
2022/11/25 06:18:15;;;;;;;3.75;1.60;;;6.90;44.30;;;;;;4995463;28;20181;-69
2022/11/25 06:20:42;;;;;;;4.20;2.33;;;6.90;44.10;;;;;;4994067;28;20221;-69
2022/11/25 06:23:08;;;;;;;2.47;1.63;;;7.00;44.20;;;;;;4993439;28;20190;-69
2022/11/25 06:25:34;;;;;;;1.73;1.10;;;7.00;43.60;;;;;;4995219;28;20175;-69
2022/11/25 06:28:01;;;;;;;1.77;1.20;;;7.00;44.00;;;;;;4995366;28;20170;-70
2022/11/25 06:30:27;;;;;;;1.73;1.10;;;7.00;44.30;;;;;;4993925;28;20198;-70
2022/11/25 06:32:54;;;;;;;2.53;1.93;;;6.80;44.90;;;;;;4986875;28;20240;-69
2022/11/25 06:35:19;;;;;;;2.10;1.30;;;6.90;44.40;;;;;;4994866;28;20839;-69
2022/11/25 06:37:45;;;;;;;1.97;1.37;;;7.00;44.30;;;;;;4994438;28;20182;-69
2022/11/25 06:40:11;;;;;;;2.10;1.27;;;6.90;44.70;;;;;;4993056;28;20707;-69
2022/11/25 06:42:37;;;;;;;5.90;2.77;;;6.90;45.00;;;;;;4991616;28;20210;-69
2022/11/25 06:45:04;;;;;;;1.70;1.10;;;7.10;45.00;;;;;;4991728;28;20185;-69
2022/11/25 06:47:30;;;;;;;3.55;1.75;;;7.10;44.90;;;;;;4994616;28;20229;-70
2022/11/25 06:49:55;;;;;;;2.57;1.70;;;7.20;44.70;;;;;;4999086;28;20210;-69
2022/11/25 06:52:21;;;;;;;1.80;1.10;;;7.10;45.10;;;;;;4994715;28;20223;-69
2022/11/25 06:54:47;;;;;;;2.37;1.53;;;7.00;45.60;;;;;;4994912;28;20178;-69
2022/11/25 06:57:16;;;;;;;2.87;1.60;;;7.20;45.20;;;;;;4993659;28;20182;-70
2022/11/25 06:59:42;;;;;;;5.10;3.40;;;7.40;44.60;;;;;;4998662;28;20976;-69
2022/11/25 07:02:10;;;;;;;3.88;2.00;;;7.40;44.70;;;;;;4985470;28;20181;-69
2022/11/25 07:04:36;;;;;;;1.80;1.10;;;7.50;45.10;;;;;;4994731;28;20182;-68
2022/11/25 07:07:02;;;;;;;1.80;1.10;;;7.50;44.80;;;;;;4995065;28;20182;-69
2022/11/25 07:09:28;;;;;;;2.28;1.42;;;7.60;44.60;;;;;;4993839;28;20453;-69
2022/11/25 07:11:54;;;;;;;2.00;1.40;;;7.70;44.60;;;;;;4993748;28;20680;-69
2022/11/25 07:14:20;;;;;;;2.43;1.43;;;7.70;45.30;;;;;;5000930;28;20473;-69
2022/11/25 07:16:45;;;;;;;3.40;1.83;;;7.90;44.70;;;;;;4994670;28;20189;-69
2022/11/25 07:19:14;;;;;;;2.30;1.67;;;7.90;44.60;;;;;;4994250;28;20205;-69
2022/11/25 07:21:42;;;;;;;2.60;1.95;;;8.00;44.80;;;;;;4994095;28;20202;-70
2022/11/25 07:24:11;;;;;;;2.22;1.52;;;8.10;44.70;;;;;;4992863;28;20556;-69
2022/11/25 07:26:39;;;;;;;1.90;1.20;;;8.10;45.20;;;;;;4994543;28;20208;-69
2022/11/25 07:29:07;;;;;;;2.40;1.70;;;8.10;45.00;;;;;;4994258;28;20210;-69
2022/11/25 07:31:36;;;;;;;2.95;2.03;;;8.10;45.20;;;;;;4994348;28;20166;-70
2022/11/25 07:34:09;;;;;;;1.83;1.10;;;8.10;44.90;;;;;;4995451;28;20560;-71
2022/11/25 07:36:35;;;;;;;2.00;1.27;;;8.30;45.00;;;;;;4991245;28;20241;-72
2022/11/25 07:39:04;;;;;;;1.80;1.20;;;8.30;45.00;;;;;;4985081;28;20205;-74
2022/11/25 07:41:30;;;;;;;2.00;1.35;;;8.40;44.80;;;;;;4983752;28;20234;-74
2022/11/25 07:43:59;;;;;;;1.80;1.10;;;8.60;44.20;;;;;;4989975;28;20186;-74
2022/11/25 07:46:28;;;;;;;1.90;1.20;;;8.50;44.00;;;;;;4993632;28;20174;-73
2022/11/25 07:48:56;;;;;;;1.90;1.23;;;8.40;45.00;;;;;;5008352;28;20656;-73
2022/11/25 07:51:36;;;;;;;2.00;1.35;;;8.50;44.80;;;;;;5013307;28;20680;-73
2022/11/25 07:54:05;;;;;;;3.17;1.85;;;8.40;45.40;;;;;;5007641;28;20192;-74
2022/11/25 07:56:33;;;;;;;2.33;1.48;;;8.40;46.20;;;;;;4993531;28;20173;-74
2022/11/25 07:58:58;;;;;;;1.90;1.30;;;8.50;46.00;;;;;;4993457;28;20225;-73
2022/11/25 08:01:24;;;;;;;2.70;1.67;;;8.70;45.50;;;;;;4989334;28;20237;-74
2022/11/25 08:03:51;;;;;;;2.10;1.20;;;8.80;45.20;;;;;;4991478;28;20599;-74
2022/11/25 08:06:22;;;;;;;2.20;1.60;;;8.30;46.10;;;;;;4991488;28;20574;-72
2022/11/25 08:08:49;;;;;;;2.20;1.50;;;8.10;46.60;;;;;;4995038;28;20194;-72
2022/11/25 08:11:19;;;;;;;1.70;1.10;;;8.10;46.80;;;;;;4986202;28;20240;-72
2022/11/25 08:13:44;;;;;;;3.97;1.92;;;8.20;46.00;;;;;;4990009;28;20190;-72
2022/11/25 08:16:12;;;;;;;8.23;2.63;;;8.20;45.80;;;;;;4984118;28;20564;-71
2022/11/25 08:18:39;;;;;;;2.10;1.40;;;7.80;46.60;;;;;;4993468;28;20296;-71
2022/11/25 08:21:08;;;;;;;1.90;1.20;;;7.80;47.60;;;;;;4991346;28;20214;-72
2022/11/25 08:23:35;;;;;;;1.80;1.10;;;8.40;47.10;;;;;;4986100;28;20205;-72
2022/11/25 08:26:09;;;;;;;5.60;2.53;;;8.60;45.10;;;;;;4994052;28;20197;-71
2022/11/25 08:28:36;;;;;;;2.28;1.35;;;8.70;45.20;;;;;;4979096;28;20181;-72
2022/11/25 08:31:07;;;;;;;2.55;1.67;;;8.80;44.30;;;;;;4993210;28;20224;-72
2022/11/25 08:33:33;;;;;;;2.28;1.45;;;9.00;44.60;;;;;;4988147;28;20186;-71
2022/11/25 08:35:59;;;;;;;1.87;1.20;;;9.10;44.60;;;;;;4994155;28;20186;-72
2022/11/25 08:38:26;;;;;;;1.80;1.20;;;9.20;43.90;;;;;;4993476;28;20178;-72
2022/11/25 08:40:52;;;;;;;8.63;2.38;;;9.20;43.80;;;;;;4991214;28;20941;-71
2022/11/25 08:43:20;;;;;;;2.95;1.80;;;9.20;43.10;;;;;;4991657;28;20181;-71
2022/11/25 08:45:48;;;;;;;1.90;1.25;;;9.20;43.40;;;;;;4975293;28;20181;-71
2022/11/25 08:48:16;;;;;;;1.80;1.33;;;9.20;43.40;;;;;;4984724;28;20571;-71
2022/11/25 08:50:53;;;;;;;1.92;1.20;;;9.20;43.70;;;;;;4992496;28;20201;-71
2022/11/25 08:53:21;;;;;;;3.85;2.28;;;9.30;43.80;;;;;;4994018;28;20201;-72
2022/11/25 08:55:47;;;;;;;1.80;1.17;;;9.30;44.10;;;;;;4986688;28;20206;-71
2022/11/25 08:58:13;;;;;;;2.00;1.57;;;9.40;44.40;;;;;;4986105;28;20704;-72
2022/11/25 09:00:43;;;;;;;3.70;2.03;;;9.50;43.70;;;;;;4994981;28;20469;-71
2022/11/25 09:03:09;;;;;;;1.90;1.20;;;9.30;44.00;;;;;;4996202;28;20778;-71
2022/11/25 09:05:39;;;;;;;4.95;1.95;;;9.50;44.80;;;;;;4992215;28;20557;-71
2022/11/25 09:08:06;;;;;;;2.30;1.58;;;9.00;44.60;;;;;;4988461;28;20188;-71
2022/11/25 09:10:33;;;;;;;4.13;2.30;;;9.20;43.90;;;;;;4991936;28;20240;-71
2022/11/25 09:12:59;;;;;;;2.10;1.50;;;9.10;45.00;;;;;;4983994;28;20190;-71
2022/11/25 09:15:25;;;;;;;2.35;1.48;;;9.30;44.10;;;;;;4983525;28;20185;-71
2022/11/25 09:18:02;;;;;;;2.03;1.40;;;9.40;43.30;;;;;;4988145;28;20190;-74
2022/11/25 09:20:28;;;;;;;2.00;1.30;;;9.20;43.80;;;;;;4987373;28;20237;-72
2022/11/25 09:22:54;;;;;;;2.40;1.55;;;9.20;44.60;;;;;;4991943;28;20177;-72
2022/11/25 09:25:21;;;;;;;1.90;1.30;;;9.00;45.40;;;;;;4990987;28;20600;-70
2022/11/25 09:27:47;;;;;;;2.60;1.95;;;9.20;44.30;;;;;;4984239;28;20545;-70
2022/11/25 09:30:13;;;;;;;1.90;1.23;;;9.40;44.40;;;;;;4989069;28;20217;-71
2022/11/25 09:32:38;;;;;;;2.30;1.60;;;9.80;43.60;;;;;;4987062;28;20197;-73
2022/11/25 09:35:04;;;;;;;3.30;2.10;;;10.10;41.30;;;;;;4984198;28;20813;-70
2022/11/25 09:37:31;;;;;;;2.05;1.48;;;10.30;40.60;;;;;;4975030;28;20273;-70
2022/11/25 09:39:56;;;;;;;2.67;1.98;;;10.60;40.90;;;;;;4988588;28;20226;-71
2022/11/25 09:49:10;;;;;;;2.00;1.17;;;11.90;37.00;;;;;;4912350;29;20634;-70
2022/11/25 09:51:51;;;;;;;2.00;1.40;;;11.00;38.80;;;;;;4913279;29;20184;-70
2022/11/25 09:54:28;;;;;;;2.28;1.30;;;10.90;40.50;;;;;;4893880;29;20177;-70
2022/11/25 09:57:18;;;;;;;2.20;1.50;;;10.90;40.30;;;;;;4893889;29;20200;-70
2022/11/25 10:00:01;;;;;;;2.00;1.23;;;10.80;41.30;;;;;;4907261;29;20614;-70
2022/11/25 10:02:38;;;;;;;3.40;2.50;;;10.90;41.00;;;;;;4912657;29;20177;-70
2022/11/25 10:05:22;;;;;;;2.50;1.67;;;11.30;40.10;;;;;;4912751;29;20184;-71
2022/11/25 10:07:59;;;;;;;3.10;1.92;;;11.70;39.70;;;;;;4912925;29;20208;-70
2022/11/25 10:10:34;;;;;;;2.10;1.30;;;11.80;39.80;;;;;;4911814;29;20732;-70
2022/11/25 10:13:03;;;;;;;2.15;1.25;;;12.00;38.00;;;;;;4911910;29;20861;-70
2022/11/25 10:15:35;;;;;;;3.13;1.37;;;12.20;37.90;;;;;;4906261;29;20203;-70
2022/11/25 10:18:05;;;;;;;2.43;1.40;;;12.30;38.30;;;;;;4912822;29;20425;-70
2022/11/25 10:20:35;;;;;;;3.97;1.93;;;12.50;37.70;;;;;;4898796;29;20581;-70
2022/11/25 10:23:08;;;;;;;2.80;1.77;;;12.40;37.70;;;;;;4943297;28;20437;-71
2022/11/25 10:25:41;;;;;;;3.30;2.10;;;12.30;37.80;;;;;;4984737;28;20495;-71
2022/11/25 10:28:17;;;;;;;2.60;1.47;;;12.30;38.10;;;;;;4973931;28;20457;-70
2022/11/25 10:30:44;;;;;;;2.97;1.73;;;12.30;38.40;;;;;;4991886;28;20448;-70
2022/11/25 10:33:21;;;;;;;2.50;1.40;;;11.60;39.90;;;;;;4978626;28;20963;-70
2022/11/25 10:35:57;;;;;;;2.83;1.67;;;11.50;39.90;;;;;;4986319;28;20418;-69
2022/11/25 10:38:29;;;;;;;2.40;1.20;;;11.30;40.80;;;;;;4993384;28;20845;-70
2022/11/25 10:40:55;;;;;;;2.60;1.40;;;10.80;42.90;;;;;;4995248;28;20567;-70
2022/11/25 10:43:21;;;;;;;2.87;1.73;;;10.50;45.20;;;;;;4988858;28;20562;-70
2022/11/25 10:46:25;;;;;;;2.53;1.53;;;10.40;46.40;;;;;;5001833;28;20441;-69
2022/11/25 10:49:22;;;;;;;2.30;1.33;;;10.30;46.00;;;;;;4980797;28;20920;-69
2022/11/25 10:51:49;;;;;;;2.20;1.20;;;10.60;45.60;;;;;;4922133;29;20968;-70
2022/11/25 10:54:18;;;;;;;2.30;1.30;;;11.30;43.00;;;;;;4915683;29;20195;-70
2022/11/25 10:57:03;;;;;;;2.83;1.40;;;11.50;41.70;;;;;;4910484;29;20500;-70
2022/11/25 10:59:30;;;;;;;2.10;1.00;;;11.50;42.20;;;;;;4907686;29;20463;-70
2022/11/25 11:02:25;;;;;;;3.13;1.87;;;11.40;42.80;;;;;;4911345;29;20228;-70
2022/11/25 11:05:14;;;;;;;2.17;1.10;;;12.00;41.30;;;;;;4898447;29;20524;-70
2022/11/25 11:07:42;;;;;;;2.27;1.13;;;12.30;39.80;;;;;;4910243;29;20473;-70
2022/11/25 11:10:21;;;;;;;2.33;1.20;;;12.00;41.10;;;;;;4912919;29;20503;-70
2022/11/25 11:12:55;;;;;;;2.20;1.20;;;11.80;41.00;;;;;;4910543;29;20192;-70
2022/11/25 11:15:24;;;;;;;2.30;1.30;;;11.70;42.00;;;;;;4911184;29;20452;-70
2022/11/25 11:17:50;;;;;;;2.40;1.30;;;10.90;44.20;;;;;;4912368;29;20540;-70
2022/11/25 11:20:24;;;;;;;2.33;1.20;;;11.00;45.20;;;;;;4910914;29;20615;-70
2022/11/25 11:23:10;;;;;;;2.57;1.40;;;10.70;45.80;;;;;;4912032;29;20944;-70
2022/11/25 11:25:38;;;;;;;2.50;1.53;;;10.90;45.50;;;;;;4915063;29;20435;-71
2022/11/25 11:28:23;;;;;;;3.07;1.63;;;11.30;44.60;;;;;;4930817;28;20943;-70
2022/11/25 11:31:17;;;;;;;2.93;1.70;;;11.50;43.60;;;;;;4994102;28;20452;-70
2022/11/25 11:33:51;;;;;;;3.47;1.20;;;11.90;42.90;;;;;;4988182;28;20397;-70
2022/11/25 11:36:39;;;;;;;2.70;1.50;;;12.20;42.70;;;;;;4995066;28;20451;-70
2022/11/25 11:39:34;;;;;;;2.17;1.17;;;12.70;40.30;;;;;;4991581;28;20445;-70
2022/11/25 11:42:10;;;;;;;2.40;1.30;;;12.90;39.90;;;;;;4989429;28;20464;-70
2022/11/25 11:45:04;;;;;;;2.70;1.40;;;12.90;41.00;;;;;;4995855;28;20193;-70
2022/11/25 11:47:47;;;;;;;3.80;1.63;;;12.80;40.50;;;;;;4987591;28;20181;-72
2022/11/25 11:50:24;;;;;;;2.20;1.20;;;12.60;40.50;;;;;;4989549;28;20461;-71
2022/11/25 11:52:56;;;;;;;2.70;1.50;;;13.00;39.30;;;;;;4991506;28;20223;-70
2022/11/25 11:55:42;;;;;;;2.30;1.37;;;12.90;40.00;;;;;;4986875;28;20501;-70
2022/11/25 11:58:11;;;;;;;2.40;1.30;;;12.80;40.30;;;;;;4992872;28;20484;-71
2022/11/25 12:01:03;;;;;;;2.30;1.30;;;13.10;39.80;;;;;;4994471;28;20468;-70
2022/11/25 12:03:35;;;;;;;3.33;1.73;;;13.60;37.80;;;;;;4990083;28;20519;-70
2022/11/25 12:06:05;;;;;;;2.30;1.30;;;13.30;38.00;;;;;;4993677;28;20516;-71
2022/11/25 12:08:48;;;;;;;2.50;1.40;;;13.30;38.00;;;;;;4985174;28;20436;-69
2022/11/25 12:11:28;;;;;;;2.77;1.20;;;13.20;38.40;;;;;;4991423;28;20463;-72
2022/11/25 12:14:19;;;;;;;2.50;1.40;;;12.40;40.40;;;;;;4992460;28;20449;-71
2022/11/25 12:16:57;;;;;;;2.93;1.57;;;12.70;40.00;;;;;;4992713;28;20437;-70
2022/11/25 12:19:30;;;;;;;2.57;1.60;;;12.90;40.20;;;;;;4992898;28;20795;-69
2022/11/25 12:22:04;;;;;;;2.60;1.20;;;11.90;42.00;;;;;;4990100;28;20457;-70
2022/11/25 12:25:07;;;;;;;2.30;1.30;;;11.60;43.20;;;;;;4986254;28;20653;-70
2022/11/25 12:27:45;;;;;;;2.37;1.30;;;11.60;43.40;;;;;;4993245;28;20413;-70
2022/11/25 12:30:18;;;;;;;3.47;1.93;;;12.10;42.10;;;;;;4991799;28;20460;-70
2022/11/25 12:33:03;;;;;;;2.20;1.10;;;12.50;41.10;;;;;;4995161;28;20479;-72
2022/11/25 12:35:59;;;;;;;3.20;1.60;;;12.80;42.40;;;;;;4988290;28;20933;-69
2022/11/25 12:38:45;;;;;;;2.20;1.10;;;12.90;41.50;;;;;;4988402;28;20437;-69
2022/11/25 12:41:23;;;;;;;2.50;1.30;;;13.10;40.40;;;;;;4992507;28;20499;-70
2022/11/25 12:43:52;;;;;;;2.30;1.10;;;13.20;40.90;;;;;;4990961;28;20424;-68
2022/11/25 12:46:39;;;;;;;3.27;1.60;;;13.40;39.90;;;;;;4991836;28;20834;-69
2022/11/25 12:49:12;;;;;;;2.50;1.40;;;13.40;40.30;;;;;;4989332;28;20457;-69
2022/11/25 12:52:11;;;;;;;2.30;1.20;;;13.40;40.40;;;;;;4988141;28;20445;-69
2022/11/25 12:54:52;;;;;;;2.87;1.30;;;13.50;41.20;;;;;;4989791;28;20531;-69
2022/11/25 12:57:26;;;;;;;2.50;1.33;;;13.80;38.30;;;;;;4991135;28;20442;-69
2022/11/25 13:00:17;;;;;;;2.60;1.40;;;14.10;37.20;;;;;;4993342;28;20595;-69
2022/11/25 13:03:08;;;;;;;2.70;1.50;;;14.10;37.40;;;;;;4990521;28;20937;-72
2022/11/25 13:06:07;;;;;;;2.30;1.10;;;13.90;37.80;;;;;;4995664;28;20421;-69
2022/11/25 13:09:08;;;;;;;2.80;1.30;;;14.00;37.40;;;;;;4992008;28;20445;-69
2022/11/25 13:11:48;;;;;;;2.50;1.27;;;13.50;38.70;;;;;;4986287;28;20985;-69
2022/11/25 13:15:07;;;;;;;2.30;1.20;;;13.40;39.80;;;;;;4983494;28;20441;-70
2022/11/25 13:17:40;;;;;;;2.47;1.40;;;13.40;39.70;;;;;;4906089;29;20433;-70
2022/11/25 13:20:24;;;;;;;2.43;1.20;;;13.20;40.60;;;;;;4904431;29;20470;-69
2022/11/25 13:23:18;;;;;;;2.50;1.30;;;13.30;40.40;;;;;;4912781;29;20424;-69
2022/11/25 13:25:49;;;;;;;2.40;1.20;;;12.90;41.20;;;;;;4900962;29;20429;-69